sensor_id;sensor_type;location;lat;lon;timestamp;P1;durP1;ratioP1;P2;durP2;ratioP2
1479;SDS011;732;51.698;4.886;2023-02-22T00:02:05;49.83;;;17.90;;
1479;SDS011;732;51.698;4.886;2023-02-22T00:04:52;58.47;;;19.00;;
1479;SDS011;732;51.698;4.886;2023-02-22T00:07:21;44.70;;;18.53;;
1479;SDS011;732;51.698;4.886;2023-02-22T00:09:50;54.00;;;19.80;;
1479;SDS011;732;51.698;4.886;2023-02-22T00:12:20;53.50;;;18.10;;
1479;SDS011;732;51.698;4.886;2023-02-22T00:14:48;55.53;;;20.80;;
1479;SDS011;732;51.698;4.886;2023-02-22T00:17:17;64.63;;;20.07;;
1479;SDS011;732;51.698;4.886;2023-02-22T00:19:47;64.47;;;21.13;;
1479;SDS011;732;51.698;4.886;2023-02-22T00:22:16;72.57;;;21.63;;
1479;SDS011;732;51.698;4.886;2023-02-22T00:24:45;59.90;;;20.63;;
1479;SDS011;732;51.698;4.886;2023-02-22T00:27:15;54.10;;;18.60;;
1479;SDS011;732;51.698;4.886;2023-02-22T00:29:45;60.07;;;20.13;;
1479;SDS011;732;51.698;4.886;2023-02-22T00:32:14;64.30;;;20.20;;
1479;SDS011;732;51.698;4.886;2023-02-22T00:34:43;60.73;;;18.63;;
1479;SDS011;732;51.698;4.886;2023-02-22T00:37:11;55.30;;;18.70;;
1479;SDS011;732;51.698;4.886;2023-02-22T00:39:39;63.47;;;18.57;;
1479;SDS011;732;51.698;4.886;2023-02-22T00:42:08;62.87;;;19.77;;
1479;SDS011;732;51.698;4.886;2023-02-22T00:44:36;71.87;;;21.93;;
1479;SDS011;732;51.698;4.886;2023-02-22T00:47:06;55.70;;;17.67;;
1479;SDS011;732;51.698;4.886;2023-02-22T00:49:36;58.87;;;19.50;;
1479;SDS011;732;51.698;4.886;2023-02-22T00:52:04;60.23;;;19.30;;
1479;SDS011;732;51.698;4.886;2023-02-22T00:54:34;59.97;;;19.47;;
1479;SDS011;732;51.698;4.886;2023-02-22T00:57:03;64.50;;;19.87;;
1479;SDS011;732;51.698;4.886;2023-02-22T00:59:31;57.97;;;16.90;;
1479;SDS011;732;51.698;4.886;2023-02-22T01:02:00;63.07;;;18.53;;
1479;SDS011;732;51.698;4.886;2023-02-22T01:04:30;61.73;;;18.97;;
1479;SDS011;732;51.698;4.886;2023-02-22T01:06:58;63.17;;;18.37;;
1479;SDS011;732;51.698;4.886;2023-02-22T01:09:26;55.50;;;18.63;;
1479;SDS011;732;51.698;4.886;2023-02-22T01:11:55;69.30;;;20.17;;
1479;SDS011;732;51.698;4.886;2023-02-22T01:14:24;52.70;;;18.80;;
1479;SDS011;732;51.698;4.886;2023-02-22T01:16:53;55.73;;;18.90;;
1479;SDS011;732;51.698;4.886;2023-02-22T01:19:23;63.90;;;20.37;;
1479;SDS011;732;51.698;4.886;2023-02-22T01:21:53;67.43;;;20.87;;
1479;SDS011;732;51.698;4.886;2023-02-22T01:24:21;66.43;;;20.37;;
1479;SDS011;732;51.698;4.886;2023-02-22T01:26:52;58.60;;;19.57;;
1479;SDS011;732;51.698;4.886;2023-02-22T01:29:20;53.80;;;20.27;;
1479;SDS011;732;51.698;4.886;2023-02-22T01:31:50;63.37;;;20.53;;
1479;SDS011;732;51.698;4.886;2023-02-22T01:34:21;50.70;;;17.40;;
1479;SDS011;732;51.698;4.886;2023-02-22T01:36:52;62.77;;;20.10;;
1479;SDS011;732;51.698;4.886;2023-02-22T01:39:22;60.37;;;19.80;;
1479;SDS011;732;51.698;4.886;2023-02-22T01:41:50;63.00;;;19.83;;
1479;SDS011;732;51.698;4.886;2023-02-22T01:44:21;77.87;;;20.40;;
1479;SDS011;732;51.698;4.886;2023-02-22T01:46:57;68.07;;;18.93;;
1479;SDS011;732;51.698;4.886;2023-02-22T01:49:28;63.50;;;19.97;;
1479;SDS011;732;51.698;4.886;2023-02-22T01:52:04;73.60;;;21.07;;
1479;SDS011;732;51.698;4.886;2023-02-22T01:54:36;63.57;;;20.53;;
1479;SDS011;732;51.698;4.886;2023-02-22T01:57:11;67.13;;;20.80;;
1479;SDS011;732;51.698;4.886;2023-02-22T01:59:46;65.47;;;19.80;;
1479;SDS011;732;51.698;4.886;2023-02-22T02:02:19;68.03;;;22.30;;
1479;SDS011;732;51.698;4.886;2023-02-22T02:04:52;65.60;;;20.50;;
1479;SDS011;732;51.698;4.886;2023-02-22T02:07:24;66.23;;;19.83;;
1479;SDS011;732;51.698;4.886;2023-02-22T02:09:56;62.00;;;19.53;;
1479;SDS011;732;51.698;4.886;2023-02-22T02:12:27;60.80;;;18.67;;
1479;SDS011;732;51.698;4.886;2023-02-22T02:17:49;45.80;;;16.63;;
1479;SDS011;732;51.698;4.886;2023-02-22T02:20:23;52.43;;;17.37;;
1479;SDS011;732;51.698;4.886;2023-02-22T02:23:06;74.27;;;19.53;;
1479;SDS011;732;51.698;4.886;2023-02-22T02:26:00;63.40;;;19.83;;
1479;SDS011;732;51.698;4.886;2023-02-22T02:29:01;49.47;;;18.00;;
1479;SDS011;732;51.698;4.886;2023-02-22T02:32:07;57.07;;;18.90;;
1479;SDS011;732;51.698;4.886;2023-02-22T02:34:49;57.43;;;19.00;;
1479;SDS011;732;51.698;4.886;2023-02-22T02:37:31;58.40;;;19.57;;
1479;SDS011;732;51.698;4.886;2023-02-22T02:40:10;57.93;;;19.03;;
1479;SDS011;732;51.698;4.886;2023-02-22T02:42:50;48.93;;;16.80;;
1479;SDS011;732;51.698;4.886;2023-02-22T02:45:27;57.23;;;19.77;;
1479;SDS011;732;51.698;4.886;2023-02-22T02:48:05;51.67;;;18.57;;
1479;SDS011;732;51.698;4.886;2023-02-22T02:50:40;48.50;;;17.30;;
1479;SDS011;732;51.698;4.886;2023-02-22T02:53:14;51.37;;;17.47;;
1479;SDS011;732;51.698;4.886;2023-02-22T02:55:48;48.43;;;17.10;;
1479;SDS011;732;51.698;4.886;2023-02-22T02:58:18;47.87;;;17.93;;
1479;SDS011;732;51.698;4.886;2023-02-22T03:00:53;59.27;;;17.97;;
1479;SDS011;732;51.698;4.886;2023-02-22T03:06:47;51.83;;;16.70;;
1479;SDS011;732;51.698;4.886;2023-02-22T03:09:37;48.83;;;17.90;;
1479;SDS011;732;51.698;4.886;2023-02-22T03:12:17;61.17;;;19.43;;
1479;SDS011;732;51.698;4.886;2023-02-22T03:15:03;48.63;;;18.53;;
1479;SDS011;732;51.698;4.886;2023-02-22T03:17:49;65.17;;;18.60;;
1479;SDS011;732;51.698;4.886;2023-02-22T03:20:30;54.20;;;18.30;;
1479;SDS011;732;51.698;4.886;2023-02-22T03:23:10;56.90;;;19.40;;
1479;SDS011;732;51.698;4.886;2023-02-22T03:25:50;44.17;;;17.40;;
1479;SDS011;732;51.698;4.886;2023-02-22T03:28:26;37.93;;;15.80;;
1479;SDS011;732;51.698;4.886;2023-02-22T03:30:59;46.37;;;17.23;;
1479;SDS011;732;51.698;4.886;2023-02-22T03:33:34;40.73;;;14.90;;
1479;SDS011;732;51.698;4.886;2023-02-22T03:36:11;46.13;;;15.20;;
1479;SDS011;732;51.698;4.886;2023-02-22T03:38:43;51.33;;;18.60;;
1479;SDS011;732;51.698;4.886;2023-02-22T03:41:14;49.37;;;15.47;;
1479;SDS011;732;51.698;4.886;2023-02-22T03:43:50;46.33;;;17.07;;
1479;SDS011;732;51.698;4.886;2023-02-22T03:46:25;48.53;;;16.73;;
1479;SDS011;732;51.698;4.886;2023-02-22T03:48:57;48.23;;;17.00;;
1479;SDS011;732;51.698;4.886;2023-02-22T03:51:37;46.57;;;14.60;;
1479;SDS011;732;51.698;4.886;2023-02-22T03:54:06;49.10;;;16.43;;
1479;SDS011;732;51.698;4.886;2023-02-22T03:56:44;47.23;;;16.17;;
1479;SDS011;732;51.698;4.886;2023-02-22T03:59:20;45.60;;;15.00;;
1479;SDS011;732;51.698;4.886;2023-02-22T04:01:53;40.00;;;13.97;;
1479;SDS011;732;51.698;4.886;2023-02-22T04:04:23;37.07;;;15.07;;
1479;SDS011;732;51.698;4.886;2023-02-22T04:06:53;43.97;;;13.80;;
1479;SDS011;732;51.698;4.886;2023-02-22T04:09:23;39.80;;;15.40;;
1479;SDS011;732;51.698;4.886;2023-02-22T04:11:51;47.60;;;15.20;;
1479;SDS011;732;51.698;4.886;2023-02-22T04:14:20;42.60;;;15.90;;
1479;SDS011;732;51.698;4.886;2023-02-22T04:16:49;46.10;;;15.00;;
1479;SDS011;732;51.698;4.886;2023-02-22T04:19:17;55.67;;;17.37;;
1479;SDS011;732;51.698;4.886;2023-02-22T04:21:47;64.33;;;20.53;;
1479;SDS011;732;51.698;4.886;2023-02-22T04:24:22;63.23;;;20.07;;
1479;SDS011;732;51.698;4.886;2023-02-22T04:26:52;54.87;;;18.30;;
1479;SDS011;732;51.698;4.886;2023-02-22T04:29:21;46.57;;;16.87;;
1479;SDS011;732;51.698;4.886;2023-02-22T04:31:50;39.70;;;15.70;;
1479;SDS011;732;51.698;4.886;2023-02-22T04:34:18;48.97;;;16.33;;
1479;SDS011;732;51.698;4.886;2023-02-22T04:36:47;42.90;;;15.30;;
1479;SDS011;732;51.698;4.886;2023-02-22T04:39:16;43.77;;;16.30;;
1479;SDS011;732;51.698;4.886;2023-02-22T04:41:46;41.87;;;13.27;;
1479;SDS011;732;51.698;4.886;2023-02-22T04:44:15;52.33;;;15.13;;
1479;SDS011;732;51.698;4.886;2023-02-22T04:46:43;46.10;;;15.67;;
1479;SDS011;732;51.698;4.886;2023-02-22T04:49:13;47.10;;;15.10;;
1479;SDS011;732;51.698;4.886;2023-02-22T04:51:43;51.83;;;15.80;;
1479;SDS011;732;51.698;4.886;2023-02-22T04:54:12;51.43;;;16.50;;
1479;SDS011;732;51.698;4.886;2023-02-22T04:56:46;61.60;;;17.07;;
1479;SDS011;732;51.698;4.886;2023-02-22T04:59:15;57.53;;;18.37;;
1479;SDS011;732;51.698;4.886;2023-02-22T05:01:51;52.60;;;16.33;;
1479;SDS011;732;51.698;4.886;2023-02-22T05:04:21;55.17;;;16.10;;
1479;SDS011;732;51.698;4.886;2023-02-22T05:06:50;44.33;;;15.80;;
1479;SDS011;732;51.698;4.886;2023-02-22T05:09:20;49.83;;;15.90;;
1479;SDS011;732;51.698;4.886;2023-02-22T05:11:50;36.63;;;13.50;;
1479;SDS011;732;51.698;4.886;2023-02-22T05:14:18;48.00;;;15.20;;
1479;SDS011;732;51.698;4.886;2023-02-22T05:16:48;53.43;;;16.30;;
1479;SDS011;732;51.698;4.886;2023-02-22T05:19:16;44.83;;;14.33;;
1479;SDS011;732;51.698;4.886;2023-02-22T05:21:45;41.67;;;15.87;;
1479;SDS011;732;51.698;4.886;2023-02-22T05:24:13;43.63;;;15.40;;
1479;SDS011;732;51.698;4.886;2023-02-22T05:26:42;52.40;;;16.33;;
1479;SDS011;732;51.698;4.886;2023-02-22T05:29:13;50.57;;;16.27;;
1479;SDS011;732;51.698;4.886;2023-02-22T05:31:41;43.87;;;16.57;;
1479;SDS011;732;51.698;4.886;2023-02-22T05:34:10;46.90;;;16.33;;
1479;SDS011;732;51.698;4.886;2023-02-22T05:36:39;48.10;;;14.47;;
1479;SDS011;732;51.698;4.886;2023-02-22T05:39:08;46.63;;;14.07;;
1479;SDS011;732;51.698;4.886;2023-02-22T05:41:37;41.97;;;14.50;;
1479;SDS011;732;51.698;4.886;2023-02-22T05:44:05;41.77;;;14.73;;
1479;SDS011;732;51.698;4.886;2023-02-22T05:46:35;36.57;;;13.73;;
1479;SDS011;732;51.698;4.886;2023-02-22T05:49:04;51.57;;;14.90;;
1479;SDS011;732;51.698;4.886;2023-02-22T05:51:33;52.20;;;16.40;;
1479;SDS011;732;51.698;4.886;2023-02-22T05:54:01;47.07;;;16.30;;
1479;SDS011;732;51.698;4.886;2023-02-22T05:56:30;53.87;;;16.83;;
1479;SDS011;732;51.698;4.886;2023-02-22T05:58:58;52.10;;;17.13;;
1479;SDS011;732;51.698;4.886;2023-02-22T06:01:27;44.37;;;14.93;;
1479;SDS011;732;51.698;4.886;2023-02-22T06:03:57;57.27;;;17.80;;
1479;SDS011;732;51.698;4.886;2023-02-22T06:06:25;56.00;;;18.27;;
1479;SDS011;732;51.698;4.886;2023-02-22T06:08:54;62.47;;;17.93;;
1479;SDS011;732;51.698;4.886;2023-02-22T06:11:22;57.07;;;17.37;;
1479;SDS011;732;51.698;4.886;2023-02-22T06:13:51;58.63;;;17.50;;
1479;SDS011;732;51.698;4.886;2023-02-22T06:16:20;69.57;;;20.17;;
1479;SDS011;732;51.698;4.886;2023-02-22T06:18:49;60.83;;;18.13;;
1479;SDS011;732;51.698;4.886;2023-02-22T06:21:19;63.70;;;20.23;;
1479;SDS011;732;51.698;4.886;2023-02-22T06:23:47;54.27;;;18.37;;
1479;SDS011;732;51.698;4.886;2023-02-22T06:26:16;58.60;;;19.20;;
1479;SDS011;732;51.698;4.886;2023-02-22T06:28:46;51.23;;;16.80;;
1479;SDS011;732;51.698;4.886;2023-02-22T06:31:15;51.70;;;16.20;;
1479;SDS011;732;51.698;4.886;2023-02-22T06:33:44;41.13;;;14.67;;
1479;SDS011;732;51.698;4.886;2023-02-22T06:36:13;41.27;;;15.53;;
1479;SDS011;732;51.698;4.886;2023-02-22T06:38:43;43.57;;;13.20;;
1479;SDS011;732;51.698;4.886;2023-02-22T06:41:11;40.13;;;14.00;;
1479;SDS011;732;51.698;4.886;2023-02-22T06:43:41;42.43;;;15.13;;
1479;SDS011;732;51.698;4.886;2023-02-22T06:46:09;42.70;;;14.80;;
1479;SDS011;732;51.698;4.886;2023-02-22T06:48:39;38.50;;;14.10;;
1479;SDS011;732;51.698;4.886;2023-02-22T06:51:08;41.83;;;14.40;;
1479;SDS011;732;51.698;4.886;2023-02-22T06:53:37;41.53;;;15.10;;
1479;SDS011;732;51.698;4.886;2023-02-22T06:56:07;43.40;;;15.07;;
1479;SDS011;732;51.698;4.886;2023-02-22T06:58:35;47.80;;;15.83;;
1479;SDS011;732;51.698;4.886;2023-02-22T07:01:04;46.60;;;15.50;;
1479;SDS011;732;51.698;4.886;2023-02-22T07:03:33;40.57;;;14.90;;
1479;SDS011;732;51.698;4.886;2023-02-22T07:06:02;39.27;;;14.70;;
1479;SDS011;732;51.698;4.886;2023-02-22T07:08:33;42.17;;;15.87;;
1479;SDS011;732;51.698;4.886;2023-02-22T07:11:02;48.57;;;15.03;;
1479;SDS011;732;51.698;4.886;2023-02-22T07:13:32;43.57;;;15.23;;
1479;SDS011;732;51.698;4.886;2023-02-22T07:16:00;52.40;;;16.20;;
1479;SDS011;732;51.698;4.886;2023-02-22T07:18:29;51.50;;;17.00;;
1479;SDS011;732;51.698;4.886;2023-02-22T07:20:58;48.03;;;15.30;;
1479;SDS011;732;51.698;4.886;2023-02-22T07:23:26;50.30;;;16.93;;
1479;SDS011;732;51.698;4.886;2023-02-22T07:25:55;49.33;;;16.00;;
1479;SDS011;732;51.698;4.886;2023-02-22T07:28:26;50.17;;;16.87;;
1479;SDS011;732;51.698;4.886;2023-02-22T07:30:56;58.70;;;18.87;;
1479;SDS011;732;51.698;4.886;2023-02-22T07:33:26;71.07;;;22.03;;
1479;SDS011;732;51.698;4.886;2023-02-22T07:35:55;82.03;;;22.37;;
1479;SDS011;732;51.698;4.886;2023-02-22T07:38:23;79.77;;;23.43;;
1479;SDS011;732;51.698;4.886;2023-02-22T07:40:52;76.70;;;22.90;;
1479;SDS011;732;51.698;4.886;2023-02-22T07:43:23;67.80;;;22.07;;
1479;SDS011;732;51.698;4.886;2023-02-22T07:45:54;75.43;;;22.13;;
1479;SDS011;732;51.698;4.886;2023-02-22T07:48:26;72.00;;;21.17;;
1479;SDS011;732;51.698;4.886;2023-02-22T07:50:57;71.70;;;21.20;;
1479;SDS011;732;51.698;4.886;2023-02-22T07:53:26;56.23;;;20.17;;
1479;SDS011;732;51.698;4.886;2023-02-22T07:55:59;76.13;;;21.67;;
1479;SDS011;732;51.698;4.886;2023-02-22T07:58:30;54.27;;;20.07;;
1479;SDS011;732;51.698;4.886;2023-02-22T08:01:02;57.63;;;18.03;;
1479;SDS011;732;51.698;4.886;2023-02-22T08:03:32;52.83;;;18.70;;
1479;SDS011;732;51.698;4.886;2023-02-22T08:06:04;54.87;;;18.53;;
1479;SDS011;732;51.698;4.886;2023-02-22T08:08:34;51.97;;;18.87;;
1479;SDS011;732;51.698;4.886;2023-02-22T08:11:03;54.97;;;18.43;;
1479;SDS011;732;51.698;4.886;2023-02-22T08:13:32;52.93;;;18.20;;
1479;SDS011;732;51.698;4.886;2023-02-22T08:16:04;47.73;;;18.90;;
1479;SDS011;732;51.698;4.886;2023-02-22T08:18:32;60.10;;;19.97;;
1479;SDS011;732;51.698;4.886;2023-02-22T08:21:03;57.87;;;18.90;;
1479;SDS011;732;51.698;4.886;2023-02-22T08:23:32;55.97;;;19.47;;
1479;SDS011;732;51.698;4.886;2023-02-22T08:26:04;54.80;;;19.67;;
1479;SDS011;732;51.698;4.886;2023-02-22T08:28:36;55.67;;;20.77;;
1479;SDS011;732;51.698;4.886;2023-02-22T08:31:06;64.60;;;21.37;;
1479;SDS011;732;51.698;4.886;2023-02-22T08:33:35;63.97;;;22.33;;
1479;SDS011;732;51.698;4.886;2023-02-22T08:36:03;65.93;;;20.67;;
1479;SDS011;732;51.698;4.886;2023-02-22T08:38:35;60.40;;;22.23;;
1479;SDS011;732;51.698;4.886;2023-02-22T08:41:03;64.20;;;20.87;;
1479;SDS011;732;51.698;4.886;2023-02-22T08:43:32;60.83;;;20.40;;
1479;SDS011;732;51.698;4.886;2023-02-22T08:46:01;57.50;;;21.53;;
1479;SDS011;732;51.698;4.886;2023-02-22T08:48:30;58.97;;;20.37;;
1479;SDS011;732;51.698;4.886;2023-02-22T08:50:59;57.60;;;19.10;;
1479;SDS011;732;51.698;4.886;2023-02-22T08:53:28;66.27;;;21.73;;
1479;SDS011;732;51.698;4.886;2023-02-22T08:55:58;50.63;;;19.00;;
1479;SDS011;732;51.698;4.886;2023-02-22T08:58:27;48.80;;;17.33;;
1479;SDS011;732;51.698;4.886;2023-02-22T09:00:55;50.87;;;18.80;;
1479;SDS011;732;51.698;4.886;2023-02-22T09:03:23;46.23;;;19.33;;
1479;SDS011;732;51.698;4.886;2023-02-22T09:05:54;53.03;;;18.03;;
1479;SDS011;732;51.698;4.886;2023-02-22T09:08:24;44.53;;;17.60;;
1479;SDS011;732;51.698;4.886;2023-02-22T09:10:53;54.57;;;18.30;;
1479;SDS011;732;51.698;4.886;2023-02-22T09:13:22;61.53;;;21.47;;
1479;SDS011;732;51.698;4.886;2023-02-22T09:15:50;47.60;;;17.97;;
1479;SDS011;732;51.698;4.886;2023-02-22T09:18:18;46.07;;;18.27;;
1479;SDS011;732;51.698;4.886;2023-02-22T09:20:47;49.03;;;18.37;;
1479;SDS011;732;51.698;4.886;2023-02-22T09:23:17;46.03;;;18.33;;
1479;SDS011;732;51.698;4.886;2023-02-22T09:25:47;48.43;;;18.43;;
1479;SDS011;732;51.698;4.886;2023-02-22T09:28:16;45.10;;;16.53;;
1479;SDS011;732;51.698;4.886;2023-02-22T09:30:44;42.70;;;17.00;;
1479;SDS011;732;51.698;4.886;2023-02-22T09:33:14;40.80;;;16.40;;
1479;SDS011;732;51.698;4.886;2023-02-22T09:35:46;38.50;;;15.97;;
1479;SDS011;732;51.698;4.886;2023-02-22T09:38:19;33.67;;;15.37;;
1479;SDS011;732;51.698;4.886;2023-02-22T09:40:51;35.60;;;14.50;;
1479;SDS011;732;51.698;4.886;2023-02-22T09:43:33;31.60;;;14.70;;
1479;SDS011;732;51.698;4.886;2023-02-22T09:46:11;33.77;;;16.27;;
1479;SDS011;732;51.698;4.886;2023-02-22T09:48:54;33.17;;;13.97;;
1479;SDS011;732;51.698;4.886;2023-02-22T09:51:31;36.23;;;14.83;;
1479;SDS011;732;51.698;4.886;2023-02-22T09:54:10;29.70;;;13.50;;
1479;SDS011;732;51.698;4.886;2023-02-22T09:56:49;32.70;;;14.20;;
1479;SDS011;732;51.698;4.886;2023-02-22T09:59:24;36.63;;;15.43;;
1479;SDS011;732;51.698;4.886;2023-02-22T10:01:59;30.27;;;14.30;;
1479;SDS011;732;51.698;4.886;2023-02-22T10:04:41;28.50;;;13.40;;
1479;SDS011;732;51.698;4.886;2023-02-22T10:07:16;33.17;;;14.40;;
1479;SDS011;732;51.698;4.886;2023-02-22T10:09:52;30.97;;;13.67;;
1479;SDS011;732;51.698;4.886;2023-02-22T10:12:28;30.47;;;13.67;;
1479;SDS011;732;51.698;4.886;2023-02-22T10:18:11;24.23;;;11.87;;
1479;SDS011;732;51.698;4.886;2023-02-22T10:21:03;27.80;;;12.97;;
1479;SDS011;732;51.698;4.886;2023-02-22T10:23:41;31.47;;;14.00;;
1479;SDS011;732;51.698;4.886;2023-02-22T10:26:24;25.27;;;12.60;;
1479;SDS011;732;51.698;4.886;2023-02-22T10:28:57;26.00;;;14.23;;
1479;SDS011;732;51.698;4.886;2023-02-22T10:31:30;27.17;;;13.00;;
1479;SDS011;732;51.698;4.886;2023-02-22T10:34:04;25.37;;;13.10;;
1479;SDS011;732;51.698;4.886;2023-02-22T10:36:40;24.70;;;12.20;;
1479;SDS011;732;51.698;4.886;2023-02-22T10:39:12;26.80;;;12.50;;
1479;SDS011;732;51.698;4.886;2023-02-22T10:41:55;23.67;;;11.60;;
1479;SDS011;732;51.698;4.886;2023-02-22T10:44:31;24.40;;;11.70;;
1479;SDS011;732;51.698;4.886;2023-02-22T10:47:01;22.50;;;11.07;;
1479;SDS011;732;51.698;4.886;2023-02-22T10:49:33;26.77;;;12.70;;
1479;SDS011;732;51.698;4.886;2023-02-22T10:52:10;25.50;;;12.93;;
1479;SDS011;732;51.698;4.886;2023-02-22T10:54:45;23.50;;;11.53;;
1479;SDS011;732;51.698;4.886;2023-02-22T10:57:20;24.00;;;11.63;;
1479;SDS011;732;51.698;4.886;2023-02-22T10:59:51;26.10;;;12.10;;
1479;SDS011;732;51.698;4.886;2023-02-22T11:02:23;25.67;;;13.50;;
1479;SDS011;732;51.698;4.886;2023-02-22T11:04:57;33.00;;;14.53;;
1479;SDS011;732;51.698;4.886;2023-02-22T11:07:28;24.30;;;12.37;;
1479;SDS011;732;51.698;4.886;2023-02-22T11:09:59;22.87;;;11.33;;
1479;SDS011;732;51.698;4.886;2023-02-22T11:12:32;27.47;;;14.03;;
1479;SDS011;732;51.698;4.886;2023-02-22T11:17:55;26.13;;;12.50;;
1479;SDS011;732;51.698;4.886;2023-02-22T11:20:27;25.57;;;12.97;;
1479;SDS011;732;51.698;4.886;2023-02-22T11:23:01;21.73;;;12.70;;
1479;SDS011;732;51.698;4.886;2023-02-22T11:25:34;26.30;;;14.27;;
1479;SDS011;732;51.698;4.886;2023-02-22T11:28:07;23.03;;;12.23;;
1479;SDS011;732;51.698;4.886;2023-02-22T11:30:43;23.60;;;13.17;;
1479;SDS011;732;51.698;4.886;2023-02-22T11:33:18;26.33;;;13.50;;
1479;SDS011;732;51.698;4.886;2023-02-22T11:35:50;25.37;;;12.57;;
1479;SDS011;732;51.698;4.886;2023-02-22T11:38:21;24.67;;;13.43;;
1479;SDS011;732;51.698;4.886;2023-02-22T11:41:04;25.67;;;13.40;;
1479;SDS011;732;51.698;4.886;2023-02-22T11:43:47;23.70;;;12.23;;
1479;SDS011;732;51.698;4.886;2023-02-22T11:46:18;22.37;;;12.57;;
1479;SDS011;732;51.698;4.886;2023-02-22T11:48:55;24.70;;;13.20;;
1479;SDS011;732;51.698;4.886;2023-02-22T11:51:31;23.27;;;13.47;;
1479;SDS011;732;51.698;4.886;2023-02-22T11:54:15;23.90;;;12.50;;
1479;SDS011;732;51.698;4.886;2023-02-22T11:57:18;24.60;;;13.60;;
1479;SDS011;732;51.698;4.886;2023-02-22T12:00:04;27.50;;;12.90;;
1479;SDS011;732;51.698;4.886;2023-02-22T12:03:01;23.53;;;13.20;;
1479;SDS011;732;51.698;4.886;2023-02-22T12:05:47;24.03;;;13.57;;
1479;SDS011;732;51.698;4.886;2023-02-22T12:08:31;22.53;;;14.33;;
1479;SDS011;732;51.698;4.886;2023-02-22T12:11:20;22.57;;;12.40;;
1479;SDS011;732;51.698;4.886;2023-02-22T12:13:58;21.50;;;13.20;;
1479;SDS011;732;51.698;4.886;2023-02-22T12:16:43;20.33;;;12.20;;
1479;SDS011;732;51.698;4.886;2023-02-22T12:19:32;33.50;;;13.93;;
1479;SDS011;732;51.698;4.886;2023-02-22T12:22:06;25.20;;;13.73;;
1479;SDS011;732;51.698;4.886;2023-02-22T12:24:40;25.53;;;14.13;;
1479;SDS011;732;51.698;4.886;2023-02-22T12:27:16;26.93;;;13.70;;
1479;SDS011;732;51.698;4.886;2023-02-22T12:29:54;24.33;;;13.47;;
1479;SDS011;732;51.698;4.886;2023-02-22T12:32:33;23.40;;;13.63;;
1479;SDS011;732;51.698;4.886;2023-02-22T12:51:59;12.60;;;7.70;;
1479;SDS011;732;51.698;4.886;2023-02-22T12:58:32;33.40;;;23.90;;
1479;SDS011;732;51.698;4.886;2023-02-22T13:16:55;36.67;;;25.13;;
1479;SDS011;732;51.698;4.886;2023-02-22T13:19:32;38.57;;;26.67;;
1479;SDS011;732;51.698;4.886;2023-02-22T13:22:08;35.40;;;24.93;;
1479;SDS011;732;51.698;4.886;2023-02-22T13:24:43;35.83;;;24.93;;
1479;SDS011;732;51.698;4.886;2023-02-22T13:27:23;37.20;;;25.10;;
1479;SDS011;732;51.698;4.886;2023-02-22T13:29:55;35.00;;;25.63;;
1479;SDS011;732;51.698;4.886;2023-02-22T13:32:32;35.00;;;25.37;;
1479;SDS011;732;51.698;4.886;2023-02-22T13:35:22;43.90;;;26.50;;
1479;SDS011;732;51.698;4.886;2023-02-22T13:38:07;38.50;;;25.97;;
1479;SDS011;732;51.698;4.886;2023-02-22T13:41:22;37.00;;;25.60;;
1479;SDS011;732;51.698;4.886;2023-02-22T13:44:11;37.57;;;26.17;;
1479;SDS011;732;51.698;4.886;2023-02-22T13:47:01;40.87;;;24.90;;
1479;SDS011;732;51.698;4.886;2023-02-22T13:49:48;37.90;;;26.13;;
1479;SDS011;732;51.698;4.886;2023-02-22T13:52:44;36.63;;;25.83;;
1479;SDS011;732;51.698;4.886;2023-02-22T13:55:14;34.37;;;23.87;;
1479;SDS011;732;51.698;4.886;2023-02-22T13:57:46;32.43;;;24.17;;
1479;SDS011;732;51.698;4.886;2023-02-22T14:00:18;36.93;;;26.27;;
1479;SDS011;732;51.698;4.886;2023-02-22T14:03:25;39.77;;;26.03;;
1479;SDS011;732;51.698;4.886;2023-02-22T14:06:09;40.50;;;25.20;;
1479;SDS011;732;51.698;4.886;2023-02-22T14:09:06;35.37;;;25.63;;
1479;SDS011;732;51.698;4.886;2023-02-22T14:11:44;36.60;;;27.30;;
1479;SDS011;732;51.698;4.886;2023-02-22T14:14:22;41.20;;;28.10;;
1479;SDS011;732;51.698;4.886;2023-02-22T14:20:03;41.93;;;28.40;;
1479;SDS011;732;51.698;4.886;2023-02-22T14:26:12;38.47;;;25.43;;
1479;SDS011;732;51.698;4.886;2023-02-22T14:28:49;41.53;;;27.37;;
1479;SDS011;732;51.698;4.886;2023-02-22T14:31:21;42.63;;;27.60;;
1479;SDS011;732;51.698;4.886;2023-02-22T14:34:03;38.10;;;26.97;;
1479;SDS011;732;51.698;4.886;2023-02-22T14:36:42;45.70;;;34.27;;
1479;SDS011;732;51.698;4.886;2023-02-22T14:39:29;45.27;;;31.80;;
1479;SDS011;732;51.698;4.886;2023-02-22T14:42:04;49.03;;;34.10;;
1479;SDS011;732;51.698;4.886;2023-02-22T14:44:39;42.83;;;28.83;;
1479;SDS011;732;51.698;4.886;2023-02-22T14:47:17;39.67;;;28.47;;
1479;SDS011;732;51.698;4.886;2023-02-22T14:49:49;39.83;;;28.33;;
1479;SDS011;732;51.698;4.886;2023-02-22T14:52:20;40.60;;;27.77;;
1479;SDS011;732;51.698;4.886;2023-02-22T14:54:59;46.37;;;28.60;;
1479;SDS011;732;51.698;4.886;2023-02-22T14:57:45;39.67;;;29.80;;
1479;SDS011;732;51.698;4.886;2023-02-22T15:00:23;36.53;;;27.73;;
1479;SDS011;732;51.698;4.886;2023-02-22T15:02:58;42.10;;;29.67;;
1479;SDS011;732;51.698;4.886;2023-02-22T15:05:29;42.70;;;30.50;;
1479;SDS011;732;51.698;4.886;2023-02-22T15:08:04;38.83;;;29.80;;
1479;SDS011;732;51.698;4.886;2023-02-22T15:10:41;44.73;;;28.80;;
1479;SDS011;732;51.698;4.886;2023-02-22T15:13:13;41.53;;;30.20;;
1479;SDS011;732;51.698;4.886;2023-02-22T15:15:46;48.53;;;31.37;;
1479;SDS011;732;51.698;4.886;2023-02-22T15:18:17;43.27;;;31.60;;
1479;SDS011;732;51.698;4.886;2023-02-22T15:20:54;41.17;;;29.90;;
1479;SDS011;732;51.698;4.886;2023-02-22T15:23:26;43.40;;;30.83;;
1479;SDS011;732;51.698;4.886;2023-02-22T15:26:06;50.30;;;33.17;;
1479;SDS011;732;51.698;4.886;2023-02-22T15:28:41;50.83;;;35.90;;
1479;SDS011;732;51.698;4.886;2023-02-22T15:31:14;54.20;;;37.40;;
1479;SDS011;732;51.698;4.886;2023-02-22T15:33:51;50.93;;;37.20;;
1479;SDS011;732;51.698;4.886;2023-02-22T15:36:24;53.50;;;36.90;;
1479;SDS011;732;51.698;4.886;2023-02-22T15:38:56;48.77;;;35.73;;
1479;SDS011;732;51.698;4.886;2023-02-22T15:41:28;56.03;;;38.33;;
1479;SDS011;732;51.698;4.886;2023-02-22T15:43:59;56.10;;;41.70;;
1479;SDS011;732;51.698;4.886;2023-02-22T15:46:47;61.03;;;42.30;;
1479;SDS011;732;51.698;4.886;2023-02-22T15:49:17;60.17;;;43.63;;
1479;SDS011;732;51.698;4.886;2023-02-22T15:51:51;71.50;;;46.70;;
1479;SDS011;732;51.698;4.886;2023-02-22T15:54:40;65.13;;;46.40;;
1479;SDS011;732;51.698;4.886;2023-02-22T15:57:15;68.23;;;45.37;;
1479;SDS011;732;51.698;4.886;2023-02-22T15:59:48;72.50;;;47.40;;
1479;SDS011;732;51.698;4.886;2023-02-22T16:02:30;71.97;;;49.37;;
1479;SDS011;732;51.698;4.886;2023-02-22T16:05:03;72.00;;;50.20;;
1479;SDS011;732;51.698;4.886;2023-02-22T16:07:38;78.30;;;50.47;;
1479;SDS011;732;51.698;4.886;2023-02-22T16:10:25;76.07;;;52.23;;
1479;SDS011;732;51.698;4.886;2023-02-22T16:13:03;86.30;;;52.83;;
1479;SDS011;732;51.698;4.886;2023-02-22T16:15:52;73.27;;;50.03;;
1479;SDS011;732;51.698;4.886;2023-02-22T16:18:25;82.03;;;54.80;;
1479;SDS011;732;51.698;4.886;2023-02-22T16:21:03;82.23;;;53.37;;
1479;SDS011;732;51.698;4.886;2023-02-22T16:23:44;87.10;;;54.83;;
1479;SDS011;732;51.698;4.886;2023-02-22T16:26:22;84.03;;;53.20;;
1479;SDS011;732;51.698;4.886;2023-02-22T16:28:57;82.57;;;55.47;;
1479;SDS011;732;51.698;4.886;2023-02-22T16:31:28;89.93;;;56.70;;
1479;SDS011;732;51.698;4.886;2023-02-22T16:33:59;96.00;;;56.90;;
1479;SDS011;732;51.698;4.886;2023-02-22T16:36:36;91.70;;;56.23;;